sensor_id;sensor_type;location;lat;lon;timestamp;P1;durP1;ratioP1;P2;durP2;ratioP2
55589;SDS011;41452;42.780;23.116;2022-07-06T00:01:09;10.80;;;6.28;;
55589;SDS011;41452;42.780;23.116;2022-07-06T00:03:35;7.97;;;5.93;;
55589;SDS011;41452;42.780;23.116;2022-07-06T00:06:00;12.77;;;6.18;;
55589;SDS011;41452;42.780;23.116;2022-07-06T00:08:26;10.10;;;6.15;;
55589;SDS011;41452;42.780;23.116;2022-07-06T00:10:51;8.50;;;5.70;;
55589;SDS011;41452;42.780;23.116;2022-07-06T00:13:16;11.60;;;6.63;;
55589;SDS011;41452;42.780;23.116;2022-07-06T00:15:42;9.48;;;6.25;;
55589;SDS011;41452;42.780;23.116;2022-07-06T00:18:07;8.32;;;6.18;;
55589;SDS011;41452;42.780;23.116;2022-07-06T00:20:33;9.32;;;7.22;;
55589;SDS011;41452;42.780;23.116;2022-07-06T00:22:58;8.18;;;5.93;;
55589;SDS011;41452;42.780;23.116;2022-07-06T00:25:24;16.38;;;6.97;;
55589;SDS011;41452;42.780;23.116;2022-07-06T00:27:49;16.50;;;7.18;;
55589;SDS011;41452;42.780;23.116;2022-07-06T00:30:14;14.40;;;7.20;;
55589;SDS011;41452;42.780;23.116;2022-07-06T00:32:40;9.73;;;7.15;;
55589;SDS011;41452;42.780;23.116;2022-07-06T00:35:05;12.43;;;6.93;;
55589;SDS011;41452;42.780;23.116;2022-07-06T00:37:31;14.23;;;6.47;;
55589;SDS011;41452;42.780;23.116;2022-07-06T00:39:57;8.88;;;6.85;;
55589;SDS011;41452;42.780;23.116;2022-07-06T00:42:22;9.10;;;6.68;;
55589;SDS011;41452;42.780;23.116;2022-07-06T00:44:49;14.05;;;6.22;;
55589;SDS011;41452;42.780;23.116;2022-07-06T00:47:14;13.68;;;6.95;;
55589;SDS011;41452;42.780;23.116;2022-07-06T00:49:40;9.55;;;6.60;;
55589;SDS011;41452;42.780;23.116;2022-07-06T00:52:23;13.40;;;7.10;;
55589;SDS011;41452;42.780;23.116;2022-07-06T00:54:49;10.85;;;6.60;;
55589;SDS011;41452;42.780;23.116;2022-07-06T00:57:16;10.02;;;6.55;;
55589;SDS011;41452;42.780;23.116;2022-07-06T00:59:42;13.13;;;6.93;;
55589;SDS011;41452;42.780;23.116;2022-07-06T01:02:08;9.20;;;6.80;;
55589;SDS011;41452;42.780;23.116;2022-07-06T01:04:33;10.73;;;6.40;;
55589;SDS011;41452;42.780;23.116;2022-07-06T01:06:59;10.82;;;6.43;;
55589;SDS011;41452;42.780;23.116;2022-07-06T01:09:26;14.52;;;6.63;;
55589;SDS011;41452;42.780;23.116;2022-07-06T01:11:52;16.55;;;6.45;;
55589;SDS011;41452;42.780;23.116;2022-07-06T01:14:18;11.13;;;6.10;;
55589;SDS011;41452;42.780;23.116;2022-07-06T01:16:45;15.70;;;8.38;;
55589;SDS011;41452;42.780;23.116;2022-07-06T01:19:10;13.98;;;6.90;;
55589;SDS011;41452;42.780;23.116;2022-07-06T01:21:37;10.38;;;6.15;;
55589;SDS011;41452;42.780;23.116;2022-07-06T01:24:03;7.47;;;6.05;;
55589;SDS011;41452;42.780;23.116;2022-07-06T01:26:29;13.68;;;6.40;;
55589;SDS011;41452;42.780;23.116;2022-07-06T01:28:55;11.88;;;7.07;;
55589;SDS011;41452;42.780;23.116;2022-07-06T01:31:21;10.98;;;6.95;;
55589;SDS011;41452;42.780;23.116;2022-07-06T01:33:49;11.48;;;6.65;;
55589;SDS011;41452;42.780;23.116;2022-07-06T01:36:15;9.48;;;7.07;;
55589;SDS011;41452;42.780;23.116;2022-07-06T01:38:44;13.68;;;7.03;;
55589;SDS011;41452;42.780;23.116;2022-07-06T01:41:10;11.77;;;6.82;;
55589;SDS011;41452;42.780;23.116;2022-07-06T01:43:36;11.88;;;6.70;;
55589;SDS011;41452;42.780;23.116;2022-07-06T01:46:02;12.25;;;6.72;;
55589;SDS011;41452;42.780;23.116;2022-07-06T01:48:27;13.00;;;7.72;;
55589;SDS011;41452;42.780;23.116;2022-07-06T01:50:52;14.85;;;6.95;;
55589;SDS011;41452;42.780;23.116;2022-07-06T01:53:18;14.38;;;7.45;;
55589;SDS011;41452;42.780;23.116;2022-07-06T01:55:43;10.77;;;6.90;;
55589;SDS011;41452;42.780;23.116;2022-07-06T01:58:09;11.82;;;6.88;;
55589;SDS011;41452;42.780;23.116;2022-07-06T02:00:34;13.18;;;6.43;;
55589;SDS011;41452;42.780;23.116;2022-07-06T02:03:00;17.55;;;6.72;;
55589;SDS011;41452;42.780;23.116;2022-07-06T02:05:25;12.88;;;7.28;;
55589;SDS011;41452;42.780;23.116;2022-07-06T02:07:50;11.68;;;6.47;;
55589;SDS011;41452;42.780;23.116;2022-07-06T02:10:16;11.23;;;6.93;;
55589;SDS011;41452;42.780;23.116;2022-07-06T02:12:41;10.05;;;6.80;;
55589;SDS011;41452;42.780;23.116;2022-07-06T02:15:07;12.82;;;6.55;;
55589;SDS011;41452;42.780;23.116;2022-07-06T02:17:33;14.10;;;6.22;;
55589;SDS011;41452;42.780;23.116;2022-07-06T02:19:58;8.68;;;5.88;;
55589;SDS011;41452;42.780;23.116;2022-07-06T02:22:23;12.50;;;6.38;;
55589;SDS011;41452;42.780;23.116;2022-07-06T02:24:49;8.07;;;5.30;;
55589;SDS011;41452;42.780;23.116;2022-07-06T02:27:14;8.57;;;5.60;;
55589;SDS011;41452;42.780;23.116;2022-07-06T02:29:39;10.10;;;5.78;;
55589;SDS011;41452;42.780;23.116;2022-07-06T02:32:05;11.60;;;6.22;;
55589;SDS011;41452;42.780;23.116;2022-07-06T02:34:31;13.77;;;5.80;;
55589;SDS011;41452;42.780;23.116;2022-07-06T02:36:56;9.85;;;5.30;;
55589;SDS011;41452;42.780;23.116;2022-07-06T02:39:21;8.63;;;5.80;;
55589;SDS011;41452;42.780;23.116;2022-07-06T02:41:47;7.97;;;5.63;;
55589;SDS011;41452;42.780;23.116;2022-07-06T02:44:12;8.85;;;5.53;;
55589;SDS011;41452;42.780;23.116;2022-07-06T02:46:37;9.45;;;5.60;;
55589;SDS011;41452;42.780;23.116;2022-07-06T02:49:03;11.10;;;6.20;;
55589;SDS011;41452;42.780;23.116;2022-07-06T02:51:28;11.95;;;5.78;;
55589;SDS011;41452;42.780;23.116;2022-07-06T02:53:53;13.13;;;5.88;;
55589;SDS011;41452;42.780;23.116;2022-07-06T02:56:19;11.40;;;6.47;;
55589;SDS011;41452;42.780;23.116;2022-07-06T02:58:44;9.48;;;5.90;;
55589;SDS011;41452;42.780;23.116;2022-07-06T03:01:09;13.38;;;6.13;;
55589;SDS011;41452;42.780;23.116;2022-07-06T03:03:35;12.85;;;6.32;;
55589;SDS011;41452;42.780;23.116;2022-07-06T03:06:00;17.02;;;6.65;;
55589;SDS011;41452;42.780;23.116;2022-07-06T03:08:26;11.68;;;6.40;;
55589;SDS011;41452;42.780;23.116;2022-07-06T03:10:51;13.43;;;6.15;;
55589;SDS011;41452;42.780;23.116;2022-07-06T03:13:16;10.00;;;6.15;;
55589;SDS011;41452;42.780;23.116;2022-07-06T03:15:42;11.00;;;7.00;;
55589;SDS011;41452;42.780;23.116;2022-07-06T03:18:07;10.32;;;5.78;;
55589;SDS011;41452;42.780;23.116;2022-07-06T03:20:32;10.35;;;6.13;;
55589;SDS011;41452;42.780;23.116;2022-07-06T03:22:58;14.50;;;7.28;;
55589;SDS011;41452;42.780;23.116;2022-07-06T03:25:23;11.15;;;6.65;;
55589;SDS011;41452;42.780;23.116;2022-07-06T03:27:49;10.25;;;6.22;;
55589;SDS011;41452;42.780;23.116;2022-07-06T03:30:14;10.40;;;6.20;;
55589;SDS011;41452;42.780;23.116;2022-07-06T03:32:39;9.88;;;6.18;;
55589;SDS011;41452;42.780;23.116;2022-07-06T03:35:05;13.98;;;6.93;;
55589;SDS011;41452;42.780;23.116;2022-07-06T03:37:31;11.43;;;6.20;;
55589;SDS011;41452;42.780;23.116;2022-07-06T03:39:57;10.48;;;6.45;;
55589;SDS011;41452;42.780;23.116;2022-07-06T03:42:22;14.38;;;7.15;;
55589;SDS011;41452;42.780;23.116;2022-07-06T03:44:48;9.82;;;6.53;;
55589;SDS011;41452;42.780;23.116;2022-07-06T03:47:13;10.27;;;6.90;;
55589;SDS011;41452;42.780;23.116;2022-07-06T03:49:38;8.68;;;6.05;;
55589;SDS011;41452;42.780;23.116;2022-07-06T03:52:04;10.30;;;6.47;;
55589;SDS011;41452;42.780;23.116;2022-07-06T03:54:30;14.02;;;7.13;;
55589;SDS011;41452;42.780;23.116;2022-07-06T03:56:55;13.18;;;7.47;;
55589;SDS011;41452;42.780;23.116;2022-07-06T03:59:21;17.20;;;6.93;;
55589;SDS011;41452;42.780;23.116;2022-07-06T04:01:46;12.88;;;7.80;;
55589;SDS011;41452;42.780;23.116;2022-07-06T04:04:12;11.95;;;6.78;;
55589;SDS011;41452;42.780;23.116;2022-07-06T04:06:37;13.15;;;8.15;;
55589;SDS011;41452;42.780;23.116;2022-07-06T04:09:03;18.60;;;8.30;;
55589;SDS011;41452;42.780;23.116;2022-07-06T04:11:29;16.67;;;9.88;;
55589;SDS011;41452;42.780;23.116;2022-07-06T04:13:54;18.15;;;8.95;;
55589;SDS011;41452;42.780;23.116;2022-07-06T04:16:20;18.20;;;9.07;;
55589;SDS011;41452;42.780;23.116;2022-07-06T04:18:46;16.83;;;10.48;;
55589;SDS011;41452;42.780;23.116;2022-07-06T04:21:11;16.83;;;11.20;;
55589;SDS011;41452;42.780;23.116;2022-07-06T04:23:36;21.08;;;11.48;;
55589;SDS011;41452;42.780;23.116;2022-07-06T04:26:02;19.45;;;11.73;;
55589;SDS011;41452;42.780;23.116;2022-07-06T04:28:27;19.58;;;11.18;;
55589;SDS011;41452;42.780;23.116;2022-07-06T04:30:53;20.00;;;12.60;;
55589;SDS011;41452;42.780;23.116;2022-07-06T04:33:18;20.35;;;12.38;;
55589;SDS011;41452;42.780;23.116;2022-07-06T04:35:43;30.00;;;12.93;;
55589;SDS011;41452;42.780;23.116;2022-07-06T04:38:09;26.60;;;13.05;;
55589;SDS011;41452;42.780;23.116;2022-07-06T04:40:34;27.35;;;14.80;;
55589;SDS011;41452;42.780;23.116;2022-07-06T04:43:00;23.98;;;14.23;;
55589;SDS011;41452;42.780;23.116;2022-07-06T04:45:25;25.45;;;14.27;;
55589;SDS011;41452;42.780;23.116;2022-07-06T04:47:51;21.08;;;14.00;;
55589;SDS011;41452;42.780;23.116;2022-07-06T04:50:16;23.70;;;14.27;;
55589;SDS011;41452;42.780;23.116;2022-07-06T04:52:42;26.70;;;15.35;;
55589;SDS011;41452;42.780;23.116;2022-07-06T04:55:07;24.70;;;13.68;;
55589;SDS011;41452;42.780;23.116;2022-07-06T04:57:33;18.33;;;11.98;;
55589;SDS011;41452;42.780;23.116;2022-07-06T05:00:00;25.77;;;13.02;;
55589;SDS011;41452;42.780;23.116;2022-07-06T05:02:25;17.77;;;11.73;;
55589;SDS011;41452;42.780;23.116;2022-07-06T05:04:51;24.00;;;14.00;;
55589;SDS011;41452;42.780;23.116;2022-07-06T05:07:17;22.52;;;12.93;;
55589;SDS011;41452;42.780;23.116;2022-07-06T05:09:44;20.05;;;12.32;;
55589;SDS011;41452;42.780;23.116;2022-07-06T05:12:09;21.17;;;11.98;;
55589;SDS011;41452;42.780;23.116;2022-07-06T05:14:35;17.85;;;11.38;;
55589;SDS011;41452;42.780;23.116;2022-07-06T05:17:01;17.75;;;11.60;;
55589;SDS011;41452;42.780;23.116;2022-07-06T05:19:27;18.50;;;12.07;;
55589;SDS011;41452;42.780;23.116;2022-07-06T05:21:53;16.45;;;10.50;;
55589;SDS011;41452;42.780;23.116;2022-07-06T05:24:18;16.63;;;11.25;;
55589;SDS011;41452;42.780;23.116;2022-07-06T05:26:44;18.80;;;10.73;;
55589;SDS011;41452;42.780;23.116;2022-07-06T05:29:10;21.15;;;11.50;;
55589;SDS011;41452;42.780;23.116;2022-07-06T05:31:35;16.35;;;10.52;;
55589;SDS011;41452;42.780;23.116;2022-07-06T05:34:01;21.80;;;11.02;;
55589;SDS011;41452;42.780;23.116;2022-07-06T05:36:26;14.73;;;9.80;;
55589;SDS011;41452;42.780;23.116;2022-07-06T05:38:51;16.48;;;9.52;;
55589;SDS011;41452;42.780;23.116;2022-07-06T05:41:17;16.98;;;9.82;;
55589;SDS011;41452;42.780;23.116;2022-07-06T05:43:42;13.13;;;9.45;;
55589;SDS011;41452;42.780;23.116;2022-07-06T05:46:08;16.33;;;9.98;;
55589;SDS011;41452;42.780;23.116;2022-07-06T05:48:33;15.55;;;10.07;;
55589;SDS011;41452;42.780;23.116;2022-07-06T05:51:17;13.88;;;10.00;;
55589;SDS011;41452;42.780;23.116;2022-07-06T05:53:43;14.40;;;10.00;;
55589;SDS011;41452;42.780;23.116;2022-07-06T05:56:08;18.77;;;10.43;;
55589;SDS011;41452;42.780;23.116;2022-07-06T05:58:33;17.17;;;9.77;;
55589;SDS011;41452;42.780;23.116;2022-07-06T06:00:59;15.90;;;10.60;;
55589;SDS011;41452;42.780;23.116;2022-07-06T06:03:24;14.52;;;10.52;;
55589;SDS011;41452;42.780;23.116;2022-07-06T06:05:50;17.30;;;11.52;;
55589;SDS011;41452;42.780;23.116;2022-07-06T06:08:16;16.63;;;11.98;;
55589;SDS011;41452;42.780;23.116;2022-07-06T06:10:41;17.30;;;10.95;;
55589;SDS011;41452;42.780;23.116;2022-07-06T06:13:06;17.30;;;11.55;;
55589;SDS011;41452;42.780;23.116;2022-07-06T06:15:32;16.27;;;12.00;;
55589;SDS011;41452;42.780;23.116;2022-07-06T06:17:58;17.35;;;11.63;;
55589;SDS011;41452;42.780;23.116;2022-07-06T06:20:23;15.63;;;11.20;;
55589;SDS011;41452;42.780;23.116;2022-07-06T06:22:56;15.02;;;10.77;;
55589;SDS011;41452;42.780;23.116;2022-07-06T06:25:35;17.75;;;11.88;;
55589;SDS011;41452;42.780;23.116;2022-07-06T06:28:03;21.40;;;12.57;;
55589;SDS011;41452;42.780;23.116;2022-07-06T06:30:29;20.77;;;13.57;;
55589;SDS011;41452;42.780;23.116;2022-07-06T06:33:17;16.90;;;12.10;;
55589;SDS011;41452;42.780;23.116;2022-07-06T06:35:42;17.02;;;12.80;;
55589;SDS011;41452;42.780;23.116;2022-07-06T06:38:09;20.52;;;13.88;;
55589;SDS011;41452;42.780;23.116;2022-07-06T06:40:35;18.45;;;12.95;;
55589;SDS011;41452;42.780;23.116;2022-07-06T06:43:00;20.50;;;13.10;;
55589;SDS011;41452;42.780;23.116;2022-07-06T06:45:26;19.33;;;13.57;;
55589;SDS011;41452;42.780;23.116;2022-07-06T06:47:51;20.25;;;12.82;;
55589;SDS011;41452;42.780;23.116;2022-07-06T06:50:16;22.48;;;13.27;;
55589;SDS011;41452;42.780;23.116;2022-07-06T06:52:42;19.10;;;13.15;;
55589;SDS011;41452;42.780;23.116;2022-07-06T06:55:09;23.25;;;13.65;;
55589;SDS011;41452;42.780;23.116;2022-07-06T06:57:34;17.98;;;13.32;;
55589;SDS011;41452;42.780;23.116;2022-07-06T07:00:00;18.15;;;13.70;;
55589;SDS011;41452;42.780;23.116;2022-07-06T07:02:26;20.77;;;14.07;;
55589;SDS011;41452;42.780;23.116;2022-07-06T07:04:51;18.02;;;13.35;;
55589;SDS011;41452;42.780;23.116;2022-07-06T07:07:17;20.98;;;12.90;;
55589;SDS011;41452;42.780;23.116;2022-07-06T07:09:42;18.00;;;12.93;;
55589;SDS011;41452;42.780;23.116;2022-07-06T07:12:08;21.13;;;14.82;;
55589;SDS011;41452;42.780;23.116;2022-07-06T07:14:35;17.90;;;13.55;;
55589;SDS011;41452;42.780;23.116;2022-07-06T07:17:00;20.55;;;13.20;;
55589;SDS011;41452;42.780;23.116;2022-07-06T07:19:25;21.15;;;13.65;;
55589;SDS011;41452;42.780;23.116;2022-07-06T07:21:51;19.45;;;13.68;;
55589;SDS011;41452;42.780;23.116;2022-07-06T07:24:16;18.50;;;13.55;;
55589;SDS011;41452;42.780;23.116;2022-07-06T07:26:42;22.40;;;13.18;;
55589;SDS011;41452;42.780;23.116;2022-07-06T07:29:07;17.98;;;12.93;;
55589;SDS011;41452;42.780;23.116;2022-07-06T07:31:33;21.13;;;12.85;;
55589;SDS011;41452;42.780;23.116;2022-07-06T07:33:58;20.25;;;14.45;;
55589;SDS011;41452;42.780;23.116;2022-07-06T07:36:24;19.90;;;12.63;;
55589;SDS011;41452;42.780;23.116;2022-07-06T07:38:50;25.33;;;13.50;;
55589;SDS011;41452;42.780;23.116;2022-07-06T07:41:15;22.58;;;14.15;;
55589;SDS011;41452;42.780;23.116;2022-07-06T07:43:41;18.77;;;14.40;;
55589;SDS011;41452;42.780;23.116;2022-07-06T07:46:07;19.70;;;13.25;;
55589;SDS011;41452;42.780;23.116;2022-07-06T07:48:32;21.95;;;13.23;;
55589;SDS011;41452;42.780;23.116;2022-07-06T07:50:58;22.83;;;13.88;;
55589;SDS011;41452;42.780;23.116;2022-07-06T07:53:23;22.65;;;12.40;;
55589;SDS011;41452;42.780;23.116;2022-07-06T07:55:48;21.52;;;14.10;;
55589;SDS011;41452;42.780;23.116;2022-07-06T07:58:14;20.70;;;12.60;;
55589;SDS011;41452;42.780;23.116;2022-07-06T08:00:39;18.52;;;14.10;;
55589;SDS011;41452;42.780;23.116;2022-07-06T08:03:05;20.73;;;13.93;;
55589;SDS011;41452;42.780;23.116;2022-07-06T08:05:30;17.85;;;13.35;;
55589;SDS011;41452;42.780;23.116;2022-07-06T08:07:56;18.95;;;14.10;;
55589;SDS011;41452;42.780;23.116;2022-07-06T08:10:21;21.10;;;14.15;;
55589;SDS011;41452;42.780;23.116;2022-07-06T08:12:47;17.65;;;13.15;;
55589;SDS011;41452;42.780;23.116;2022-07-06T08:15:12;18.67;;;13.25;;
55589;SDS011;41452;42.780;23.116;2022-07-06T08:17:37;19.67;;;13.52;;
55589;SDS011;41452;42.780;23.116;2022-07-06T08:20:04;18.02;;;13.77;;
55589;SDS011;41452;42.780;23.116;2022-07-06T08:22:30;16.40;;;13.02;;
55589;SDS011;41452;42.780;23.116;2022-07-06T08:24:56;17.88;;;12.90;;
55589;SDS011;41452;42.780;23.116;2022-07-06T08:27:21;19.67;;;13.60;;
55589;SDS011;41452;42.780;23.116;2022-07-06T08:29:47;19.20;;;13.73;;
55589;SDS011;41452;42.780;23.116;2022-07-06T08:32:12;18.85;;;13.35;;
55589;SDS011;41452;42.780;23.116;2022-07-06T08:34:38;19.77;;;13.18;;
55589;SDS011;41452;42.780;23.116;2022-07-06T08:37:03;23.58;;;13.15;;
55589;SDS011;41452;42.780;23.116;2022-07-06T08:39:28;21.48;;;13.00;;
55589;SDS011;41452;42.780;23.116;2022-07-06T08:41:54;19.98;;;13.25;;
55589;SDS011;41452;42.780;23.116;2022-07-06T08:44:21;18.80;;;12.65;;
55589;SDS011;41452;42.780;23.116;2022-07-06T08:46:48;17.73;;;13.00;;
55589;SDS011;41452;42.780;23.116;2022-07-06T08:49:17;19.27;;;13.75;;
55589;SDS011;41452;42.780;23.116;2022-07-06T08:51:43;18.67;;;13.75;;
55589;SDS011;41452;42.780;23.116;2022-07-06T08:54:10;17.42;;;13.07;;
55589;SDS011;41452;42.780;23.116;2022-07-06T08:56:36;20.70;;;14.25;;
55589;SDS011;41452;42.780;23.116;2022-07-06T08:59:02;22.52;;;14.90;;
55589;SDS011;41452;42.780;23.116;2022-07-06T09:01:28;20.58;;;14.60;;
55589;SDS011;41452;42.780;23.116;2022-07-06T09:03:54;23.00;;;16.92;;
55589;SDS011;41452;42.780;23.116;2022-07-06T09:06:23;24.80;;;16.58;;
55589;SDS011;41452;42.780;23.116;2022-07-06T09:08:49;24.00;;;14.68;;
55589;SDS011;41452;42.780;23.116;2022-07-06T09:11:17;29.17;;;17.55;;
55589;SDS011;41452;42.780;23.116;2022-07-06T09:13:43;22.60;;;15.73;;
55589;SDS011;41452;42.780;23.116;2022-07-06T09:16:09;20.73;;;15.90;;
55589;SDS011;41452;42.780;23.116;2022-07-06T09:18:36;22.25;;;16.27;;
55589;SDS011;41452;42.780;23.116;2022-07-06T09:21:03;20.98;;;16.08;;
55589;SDS011;41452;42.780;23.116;2022-07-06T09:23:30;23.85;;;17.13;;
55589;SDS011;41452;42.780;23.116;2022-07-06T09:25:55;24.50;;;16.40;;
55589;SDS011;41452;42.780;23.116;2022-07-06T09:28:21;24.73;;;16.17;;
55589;SDS011;41452;42.780;23.116;2022-07-06T09:30:46;27.33;;;16.20;;
55589;SDS011;41452;42.780;23.116;2022-07-06T09:33:12;24.20;;;17.15;;
55589;SDS011;41452;42.780;23.116;2022-07-06T09:35:42;22.27;;;17.10;;
55589;SDS011;41452;42.780;23.116;2022-07-06T09:40:42;19.95;;;14.45;;
55589;SDS011;41452;42.780;23.116;2022-07-06T09:43:13;25.33;;;15.65;;
55589;SDS011;41452;42.780;23.116;2022-07-06T09:45:44;23.40;;;16.15;;
55589;SDS011;41452;42.780;23.116;2022-07-06T09:50:50;20.85;;;15.13;;
55589;SDS011;41452;42.780;23.116;2022-07-06T09:53:28;28.92;;;16.63;;
55589;SDS011;41452;42.780;23.116;2022-07-06T09:55:55;21.40;;;15.70;;
55589;SDS011;41452;42.780;23.116;2022-07-06T09:58:23;18.08;;;13.68;;
55589;SDS011;41452;42.780;23.116;2022-07-06T10:00:49;20.27;;;14.43;;
55589;SDS011;41452;42.780;23.116;2022-07-06T10:03:16;18.17;;;13.05;;
55589;SDS011;41452;42.780;23.116;2022-07-06T10:05:43;18.73;;;14.60;;
55589;SDS011;41452;42.780;23.116;2022-07-06T10:08:15;18.25;;;14.48;;
55589;SDS011;41452;42.780;23.116;2022-07-06T10:10:41;20.25;;;12.70;;
55589;SDS011;41452;42.780;23.116;2022-07-06T10:13:08;22.77;;;15.38;;
55589;SDS011;41452;42.780;23.116;2022-07-06T10:15:36;20.52;;;15.18;;
55589;SDS011;41452;42.780;23.116;2022-07-06T10:18:04;23.17;;;16.80;;
55589;SDS011;41452;42.780;23.116;2022-07-06T10:20:32;19.60;;;16.05;;
55589;SDS011;41452;42.780;23.116;2022-07-06T10:22:59;22.38;;;16.05;;
55589;SDS011;41452;42.780;23.116;2022-07-06T10:25:26;21.17;;;16.85;;
55589;SDS011;41452;42.780;23.116;2022-07-06T10:27:52;21.55;;;16.02;;
55589;SDS011;41452;42.780;23.116;2022-07-06T10:30:19;22.95;;;17.55;;
55589;SDS011;41452;42.780;23.116;2022-07-06T10:32:46;19.05;;;16.17;;
55589;SDS011;41452;42.780;23.116;2022-07-06T10:35:13;22.63;;;16.75;;
55589;SDS011;41452;42.780;23.116;2022-07-06T10:37:39;19.48;;;16.08;;
55589;SDS011;41452;42.780;23.116;2022-07-06T10:40:05;20.48;;;15.63;;
55589;SDS011;41452;42.780;23.116;2022-07-06T10:43:00;19.67;;;15.18;;
55589;SDS011;41452;42.780;23.116;2022-07-06T10:50:35;23.38;;;16.15;;
55589;SDS011;41452;42.780;23.116;2022-07-06T10:53:01;22.50;;;15.82;;
55589;SDS011;41452;42.780;23.116;2022-07-06T10:55:27;22.85;;;16.85;;
55589;SDS011;41452;42.780;23.116;2022-07-06T10:57:54;25.30;;;17.45;;
55589;SDS011;41452;42.780;23.116;2022-07-06T11:00:20;17.17;;;15.13;;
55589;SDS011;41452;42.780;23.116;2022-07-06T11:02:45;20.67;;;15.90;;
55589;SDS011;41452;42.780;23.116;2022-07-06T11:05:11;20.77;;;16.67;;
55589;SDS011;41452;42.780;23.116;2022-07-06T11:07:49;20.17;;;16.35;;
55589;SDS011;41452;42.780;23.116;2022-07-06T11:10:15;20.35;;;15.45;;
55589;SDS011;41452;42.780;23.116;2022-07-06T11:12:44;21.02;;;16.17;;
55589;SDS011;41452;42.780;23.116;2022-07-06T11:15:09;21.27;;;15.00;;
55589;SDS011;41452;42.780;23.116;2022-07-06T11:17:35;20.13;;;16.27;;
55589;SDS011;41452;42.780;23.116;2022-07-06T11:20:10;16.80;;;14.07;;
55589;SDS011;41452;42.780;23.116;2022-07-06T11:22:36;20.30;;;14.30;;
55589;SDS011;41452;42.780;23.116;2022-07-06T11:25:03;17.23;;;14.48;;
55589;SDS011;41452;42.780;23.116;2022-07-06T11:27:32;14.05;;;11.48;;
55589;SDS011;41452;42.780;23.116;2022-07-06T11:29:59;17.38;;;13.30;;
55589;SDS011;41452;42.780;23.116;2022-07-06T11:32:25;18.23;;;13.95;;
55589;SDS011;41452;42.780;23.116;2022-07-06T11:34:51;19.45;;;13.65;;
55589;SDS011;41452;42.780;23.116;2022-07-06T11:37:20;17.83;;;13.32;;
55589;SDS011;41452;42.780;23.116;2022-07-06T11:39:48;15.80;;;13.15;;
55589;SDS011;41452;42.780;23.116;2022-07-06T11:42:14;15.60;;;11.82;;
55589;SDS011;41452;42.780;23.116;2022-07-06T11:44:42;14.05;;;10.18;;
55589;SDS011;41452;42.780;23.116;2022-07-06T11:47:08;11.70;;;10.45;;
55589;SDS011;41452;42.780;23.116;2022-07-06T11:49:35;18.88;;;10.70;;
55589;SDS011;41452;42.780;23.116;2022-07-06T11:52:06;11.10;;;9.50;;
55589;SDS011;41452;42.780;23.116;2022-07-06T11:54:36;14.35;;;9.95;;
55589;SDS011;41452;42.780;23.116;2022-07-06T11:57:02;13.98;;;10.55;;
55589;SDS011;41452;42.780;23.116;2022-07-06T11:59:32;12.13;;;9.73;;
55589;SDS011;41452;42.780;23.116;2022-07-06T12:02:01;10.23;;;8.30;;
55589;SDS011;41452;42.780;23.116;2022-07-06T12:04:27;9.27;;;8.25;;
55589;SDS011;41452;42.780;23.116;2022-07-06T12:06:52;12.30;;;9.68;;
55589;SDS011;41452;42.780;23.116;2022-07-06T12:09:18;10.30;;;8.82;;
55589;SDS011;41452;42.780;23.116;2022-07-06T12:11:45;11.70;;;8.82;;
55589;SDS011;41452;42.780;23.116;2022-07-06T12:14:18;12.43;;;9.40;;
55589;SDS011;41452;42.780;23.116;2022-07-06T12:16:46;11.63;;;8.68;;
55589;SDS011;41452;42.780;23.116;2022-07-06T12:19:12;8.65;;;7.57;;
55589;SDS011;41452;42.780;23.116;2022-07-06T12:21:48;10.68;;;8.10;;
55589;SDS011;41452;42.780;23.116;2022-07-06T12:26:43;7.72;;;6.68;;
55589;SDS011;41452;42.780;23.116;2022-07-06T12:29:09;9.10;;;6.97;;
55589;SDS011;41452;42.780;23.116;2022-07-06T12:31:42;7.53;;;6.30;;
55589;SDS011;41452;42.780;23.116;2022-07-06T12:34:12;7.70;;;5.65;;
55589;SDS011;41452;42.780;23.116;2022-07-06T12:36:47;9.18;;;5.07;;
55589;SDS011;41452;42.780;23.116;2022-07-06T12:39:18;7.82;;;4.93;;
55589;SDS011;41452;42.780;23.116;2022-07-06T12:44:12;5.80;;;4.80;;
55589;SDS011;41452;42.780;23.116;2022-07-06T12:46:38;6.20;;;4.82;;
55589;SDS011;41452;42.780;23.116;2022-07-06T12:49:15;8.43;;;4.65;;
55589;SDS011;41452;42.780;23.116;2022-07-06T12:54:15;7.13;;;4.15;;
55589;SDS011;41452;42.780;23.116;2022-07-06T12:59:31;6.15;;;4.07;;
55589;SDS011;41452;42.780;23.116;2022-07-06T13:01:58;5.60;;;3.63;;
55589;SDS011;41452;42.780;23.116;2022-07-06T13:04:24;5.80;;;3.92;;
55589;SDS011;41452;42.780;23.116;2022-07-06T13:06:54;4.20;;;3.72;;
55589;SDS011;41452;42.780;23.116;2022-07-06T13:09:20;4.13;;;3.00;;
55589;SDS011;41452;42.780;23.116;2022-07-06T13:11:47;3.45;;;2.83;;
55589;SDS011;41452;42.780;23.116;2022-07-06T13:14:14;4.38;;;2.95;;
55589;SDS011;41452;42.780;23.116;2022-07-06T13:16:41;4.20;;;2.80;;
55589;SDS011;41452;42.780;23.116;2022-07-06T13:19:07;15.18;;;3.70;;
55589;SDS011;41452;42.780;23.116;2022-07-06T13:21:32;5.75;;;2.83;;
55589;SDS011;41452;42.780;23.116;2022-07-06T13:23:58;5.03;;;3.33;;
55589;SDS011;41452;42.780;23.116;2022-07-06T13:26:23;3.85;;;2.58;;
55589;SDS011;41452;42.780;23.116;2022-07-06T13:28:48;3.03;;;2.60;;
55589;SDS011;41452;42.780;23.116;2022-07-06T13:31:14;3.75;;;2.35;;
55589;SDS011;41452;42.780;23.116;2022-07-06T13:33:39;4.45;;;2.80;;
55589;SDS011;41452;42.780;23.116;2022-07-06T13:36:05;3.85;;;2.60;;
55589;SDS011;41452;42.780;23.116;2022-07-06T13:38:30;3.40;;;2.67;;
55589;SDS011;41452;42.780;23.116;2022-07-06T13:40:56;5.15;;;2.30;;
55589;SDS011;41452;42.780;23.116;2022-07-06T13:43:21;3.78;;;2.33;;
55589;SDS011;41452;42.780;23.116;2022-07-06T13:45:47;6.10;;;2.85;;
55589;SDS011;41452;42.780;23.116;2022-07-06T13:48:12;3.50;;;2.60;;
55589;SDS011;41452;42.780;23.116;2022-07-06T13:50:38;4.07;;;2.47;;
55589;SDS011;41452;42.780;23.116;2022-07-06T13:53:04;3.95;;;2.80;;
55589;SDS011;41452;42.780;23.116;2022-07-06T13:55:30;5.00;;;2.67;;
55589;SDS011;41452;42.780;23.116;2022-07-06T13:57:56;5.32;;;2.78;;
55589;SDS011;41452;42.780;23.116;2022-07-06T14:00:21;5.80;;;3.08;;
55589;SDS011;41452;42.780;23.116;2022-07-06T14:02:47;4.78;;;2.78;;
55589;SDS011;41452;42.780;23.116;2022-07-06T14:05:12;3.85;;;2.30;;
55589;SDS011;41452;42.780;23.116;2022-07-06T14:07:38;3.17;;;2.40;;
55589;SDS011;41452;42.780;23.116;2022-07-06T14:10:03;4.13;;;2.38;;
55589;SDS011;41452;42.780;23.116;2022-07-06T14:12:29;6.47;;;2.47;;
55589;SDS011;41452;42.780;23.116;2022-07-06T14:14:55;4.25;;;2.53;;
55589;SDS011;41452;42.780;23.116;2022-07-06T14:17:20;3.78;;;2.50;;
55589;SDS011;41452;42.780;23.116;2022-07-06T14:19:46;5.43;;;2.63;;
55589;SDS011;41452;42.780;23.116;2022-07-06T14:22:11;2.97;;;2.30;;
55589;SDS011;41452;42.780;23.116;2022-07-06T14:24:36;3.60;;;2.55;;
55589;SDS011;41452;42.780;23.116;2022-07-06T14:27:02;3.38;;;2.38;;
55589;SDS011;41452;42.780;23.116;2022-07-06T14:29:28;4.35;;;2.95;;
55589;SDS011;41452;42.780;23.116;2022-07-06T14:31:53;2.78;;;2.13;;
55589;SDS011;41452;42.780;23.116;2022-07-06T14:34:18;3.95;;;2.33;;